Crux — 9HZX9 — position and weather

sailwx.info

Track history (hours):
 
Tides and Currents Weather Stations Pressure Air Temp Water Temp Dewpoint Dewpoint Depression Visibility Wind Speed Wind Dir Waves Ship Positions

Crux

Last reported at 2018-Jun-01 18:47 UTC. Time now 2018-Jun-24 01:15 UTC.
Position N 27°08' W 014°18'.
Warning: this ship's position is 22 days out of date.

Length 177 m; draft 10.1 m.

Type: Cargo ship. MMSI: 249763000.

Date/timePositionNaut miles runAvg speedWind from/ knotsBaromVisibWave heightAir tempDewpointWater temp
2018-Jun-01 18:47N 27°08' W 014°18'312.3
2018-Jun-01 18:30N 27°11' W 014°15'2112.1
2018-Jun-01 16:45N 27°29' W 014°03'312.2
2018-Jun-01 16:29N 27°32' W 014°01'612.3
2018-Jun-01 15:58N 27°37' W 013°57'612.2
2018-Jun-01 15:30N 27°42' W 013°54'712.0
2018-Jun-01 14:56N 27°48' W 013°50'1212.2
2018-Jun-01 13:55N 27°58' W 013°42'512.2
2018-Jun-01 13:30N 28°03' W 013°39'2811.9
2018-Jun-01 11:08N 28°26' W 013°21'312.3
2018-Jun-01 10:52N 28°29' W 013°19'59612.1
2018-May-30 09:47N 35°58' W 005°35'3 9.8
2018-May-30 09:31N 35°59' W 005°32'5 9.3
2018-May-30 09:00N 36°00' W 005°27'4 8.5
2018-May-30 08:30N 36°04' W 005°24'4 7.9
2018-May-30 08:00N 36°07' W 005°22'0 0.7
2018-May-30 07:27N 36°07' W 005°22'0 0.1
2018-May-30 06:51N 36°07' W 005°22'0 0.2
2018-May-30 06:30N 36°07' W 005°22'0 0.0
2018-May-30 06:00N 36°07' W 005°22'0 0.0
2018-May-30 05:30N 36°07' W 005°22'0 0.0
2018-May-30 05:00N 36°07' W 005°22'0 0.1
2018-May-30 04:30N 36°07' W 005°22'0 0.1
2018-May-30 03:57N 36°07' W 005°22'0 0.0
2018-May-30 03:27N 36°07' W 005°22'0 0.1
2018-May-30 02:57N 36°07' W 005°22'0 0.0
2018-May-30 02:27N 36°07' W 005°22'0 0.7
2018-May-30 02:00N 36°07' W 005°22'3 5.3
2018-May-30 01:30N 36°05' W 005°20'510.0
2018-May-30 01:00N 36°05' W 005°14'510.6
2018-May-30 00:30N 36°06' W 005°07'21310.8
2018-May-29 04:48N 36°39' W 000°46'311.4
2018-May-29 04:30N 36°40' W 000°42'9111.7
2018-May-28 20:44N 36°57' E 001°10'411.9
2018-May-28 20:21N 36°58' E 001°15'411.9
2018-May-28 20:00N 36°59' E 001°20'612.0
2018-May-28 19:30N 36°60' E 001°28'  
2018-May-24 23:38N 37°19' E 023°38'712.8
2018-May-24 23:04N 37°26' E 023°40'112.6
2018-May-24 23:00N 37°26' E 023°41'612.7
2018-May-24 22:30N 37°33' E 023°41'612.0
2018-May-24 22:00N 37°38' E 023°42'611.8
2018-May-24 21:30N 37°44' E 023°39'611.3
2018-May-24 21:00N 37°49' E 023°37'4 8.8
2018-May-24 20:30N 37°51' E 023°32'1 1.1
2018-May-24 20:00N 37°51' E 023°31'0 0.0
2018-May-24 19:30N 37°51' E 023°31'0 0.0
2018-May-24 19:00N 37°51' E 023°31'0 0.0
2018-May-24 18:30N 37°51' E 023°31'0 0.0
2018-May-24 18:00N 37°51' E 023°31'0 0.0
2018-May-24 17:30N 37°51' E 023°31'0 0.0
2018-May-24 17:00N 37°51' E 023°31'0 0.0
2018-May-24 16:30N 37°51' E 023°31'0 0.0
2018-May-24 16:00N 37°51' E 023°31'0 0.0
2018-May-24 15:30N 37°51' E 023°31'0 0.0
2018-May-24 15:00N 37°51' E 023°31'0 0.6
2018-May-24 14:30N 37°52' E 023°31'3 6.2
2018-May-24 14:00N 37°52' E 023°35'510.3
2018-May-24 13:30N 37°49' E 023°40'  
Track history (hours):
 
Tides and Currents Weather Stations Pressure Air Temp Water Temp Dewpoint Dewpoint Depression Visibility Wind Speed Wind Dir Waves Ship Positions

Crux

Last reported at 2018-Jun-01 18:47 UTC. Time now 2018-Jun-24 01:15 UTC.
Position N 27°08' W 014°18'.
Warning: this ship's position is 22 days out of date.

Length 177 m; draft 10.1 m.

Type: Cargo ship. MMSI: 249763000.

Date/timePositionNaut miles runAvg speedWind from/ knotsBaromVisibWave heightAir tempDewpointWater temp
2018-Jun-01 18:47N 27°08' W 014°18'312.3
2018-Jun-01 18:30N 27°11' W 014°15'2112.1
2018-Jun-01 16:45N 27°29' W 014°03'312.2
2018-Jun-01 16:29N 27°32' W 014°01'612.3
2018-Jun-01 15:58N 27°37' W 013°57'612.2
2018-Jun-01 15:30N 27°42' W 013°54'712.0
2018-Jun-01 14:56N 27°48' W 013°50'1212.2
2018-Jun-01 13:55N 27°58' W 013°42'512.2
2018-Jun-01 13:30N 28°03' W 013°39'2811.9
2018-Jun-01 11:08N 28°26' W 013°21'312.3
2018-Jun-01 10:52N 28°29' W 013°19'59612.1
2018-May-30 09:47N 35°58' W 005°35'3 9.8
2018-May-30 09:31N 35°59' W 005°32'5 9.3
2018-May-30 09:00N 36°00' W 005°27'4 8.5
2018-May-30 08:30N 36°04' W 005°24'4 7.9
2018-May-30 08:00N 36°07' W 005°22'0 0.7
2018-May-30 07:27N 36°07' W 005°22'0 0.1
2018-May-30 06:51N 36°07' W 005°22'0 0.2
2018-May-30 06:30N 36°07' W 005°22'0 0.0
2018-May-30 06:00N 36°07' W 005°22'0 0.0
2018-May-30 05:30N 36°07' W 005°22'0 0.0
2018-May-30 05:00N 36°07' W 005°22'0 0.1
2018-May-30 04:30N 36°07' W 005°22'0 0.1
2018-May-30 03:57N 36°07' W 005°22'0 0.0
2018-May-30 03:27N 36°07' W 005°22'0 0.1
2018-May-30 02:57N 36°07' W 005°22'0 0.0
2018-May-30 02:27N 36°07' W 005°22'0 0.7
2018-May-30 02:00N 36°07' W 005°22'3 5.3
2018-May-30 01:30N 36°05' W 005°20'510.0
2018-May-30 01:00N 36°05' W 005°14'510.6
2018-May-30 00:30N 36°06' W 005°07'21310.8
2018-May-29 04:48N 36°39' W 000°46'311.4
2018-May-29 04:30N 36°40' W 000°42'9111.7
2018-May-28 20:44N 36°57' E 001°10'411.9
2018-May-28 20:21N 36°58' E 001°15'411.9
2018-May-28 20:00N 36°59' E 001°20'612.0
2018-May-28 19:30N 36°60' E 001°28'  
2018-May-24 23:38N 37°19' E 023°38'712.8
2018-May-24 23:04N 37°26' E 023°40'112.6
2018-May-24 23:00N 37°26' E 023°41'612.7
2018-May-24 22:30N 37°33' E 023°41'612.0
2018-May-24 22:00N 37°38' E 023°42'611.8
2018-May-24 21:30N 37°44' E 023°39'611.3
2018-May-24 21:00N 37°49' E 023°37'4 8.8
2018-May-24 20:30N 37°51' E 023°32'1 1.1
2018-May-24 20:00N 37°51' E 023°31'0 0.0
2018-May-24 19:30N 37°51' E 023°31'0 0.0
2018-May-24 19:00N 37°51' E 023°31'0 0.0
2018-May-24 18:30N 37°51' E 023°31'0 0.0
2018-May-24 18:00N 37°51' E 023°31'0 0.0
2018-May-24 17:30N 37°51' E 023°31'0 0.0
2018-May-24 17:00N 37°51' E 023°31'0 0.0
2018-May-24 16:30N 37°51' E 023°31'0 0.0
2018-May-24 16:00N 37°51' E 023°31'0 0.0
2018-May-24 15:30N 37°51' E 023°31'0 0.0
2018-May-24 15:00N 37°51' E 023°31'0 0.6
2018-May-24 14:30N 37°52' E 023°31'3 6.2
2018-May-24 14:00N 37°52' E 023°35'510.3
2018-May-24 13:30N 37°49' E 023°40'  

Dump ship's entire track history